This is the latest recevied weather packets stored in our database for station/object YB1DDK-2. If no packets are shown the sender has not sent any weather packets the latest 10 day(s).
| Time | Temp. | Humidity | Pressure | Rain* | Wind** | Luminosity | Snow |
|---|---|---|---|---|---|---|---|
| 1777721671 | 32.22° C | 73% | 999 hPa | - | - | 0 W/m² | - |
| 1777720749 | 32.22° C | 72% | 999 hPa | - | - | 0 W/m² | - |
| 1777719827 | 32.22° C | 72% | 999 hPa | - | - | 0 W/m² | - |
| 1777718905 | 32.22° C | 73% | 999 hPa | - | - | 0 W/m² | - |
| 1777717983 | 32.22° C | 73% | 999 hPa | - | - | 0 W/m² | - |
| 1777717036 | 32.22° C | 73% | 999 hPa | - | - | 0 W/m² | - |
| 1777716113 | 32.22° C | 72% | 999 hPa | - | - | 0 W/m² | - |
| 1777715238 | 32.22° C | 72% | 999 hPa | - | - | 0 W/m² | - |
| 1777715192 | 32.22° C | 72% | 999 hPa | - | - | 0 W/m² | - |
| 1777714269 | 32.22° C | 73% | 999 hPa | - | - | 0 W/m² | - |
| 1777713346 | 32.22° C | 72% | 999 hPa | - | - | 0 W/m² | - |
| 1777712425 | 32.22° C | 73% | 998 hPa | - | - | 0 W/m² | - |
| 1777711502 | 32.22° C | 73% | 999 hPa | - | - | 0 W/m² | - |
| 1777710580 | 31.67° C | 74% | 998 hPa | - | - | 0 W/m² | - |
| 1777709658 | 32.22° C | 73% | 999 hPa | - | - | 0 W/m² | - |
| 1777708711 | 32.22° C | 73% | 999 hPa | - | - | 0 W/m² | - |
| 1777707788 | 32.78° C | 71% | 999 hPa | - | - | 0 W/m² | - |
| 1777707763 | 33.33° C | 71% | 999 hPa | - | - | 0 W/m² | - |
| 1777706840 | 34.44° C | 60% | 998 hPa | - | - | 0 W/m² | - |
| 1777705918 | 35° C | 60% | 998 hPa | - | - | 0 W/m² | - |
| 1777704996 | 35.56° C | 57% | 998 hPa | - | - | 0 W/m² | - |
| 1777704074 | 36.11° C | 56% | 999 hPa | - | - | 0 W/m² | - |
| 1777703152 | 36.11° C | 53% | 999 hPa | - | - | 0 W/m² | - |
| 1777702230 | 36.67° C | 51% | 999 hPa | - | - | 0 W/m² | - |
| 1777701308 | 36.11° C | 52% | 999 hPa | - | - | 0 W/m² | - |
* Rain since midnight (hover to see other rain measurements)
** Current wind speed in m/s (hover to see current wind gust speed)